Time;durP1;ratioP1;P1;durP2;ratioP2;P2;SDS_P1;SDS_P2;PMS_P1;PMS_P2;Temp;Humidity;BMP_temperature;BMP_pressure;BME280_temperature;BME280_humidity;BME280_pressure;Samples;Min_cycle;Max_cycle;Signal;HPM_P1;HPM_P2
2022/08/15 08:01:30;;;;;;;15.02;6.60;;;;;;;23.55;61.00;100211.53;5308861;27;20866;-74
2022/08/15 08:04:10;;;;;;;11.50;6.65;;;;;;;23.54;60.88;100221.19;5321059;28;20038;-78
2022/08/15 08:06:49;;;;;;;14.13;7.13;;;;;;;23.60;60.80;100216.81;5292607;28;20484;-77
2022/08/15 08:09:38;;;;;;;9.25;5.70;;;;;;;23.66;60.35;100220.88;5291525;28;20431;-75
2022/08/15 08:12:15;;;;;;;8.25;6.15;;;;;;;23.61;60.03;100215.59;5300354;28;20075;-75
2022/08/15 08:15:06;;;;;;;8.52;5.93;;;;;;;23.66;59.87;100215.22;5300128;28;20024;-75
2022/08/15 08:17:59;;;;;;;9.43;6.07;;;;;;;23.64;59.91;100228.97;5293944;28;20024;-76
2022/08/15 08:20:32;;;;;;;9.75;6.47;;;;;;;23.62;59.97;100231.38;5291077;28;20028;-73
2022/08/15 08:23:19;;;;;;;7.15;6.10;;;;;;;23.70;60.13;100215.25;5291079;28;20029;-74
2022/08/15 08:26:06;;;;;;;8.82;6.65;;;;;;;23.64;60.23;100226.94;5279101;28;20420;-72
2022/08/15 08:28:46;;;;;;;9.05;6.30;;;;;;;23.71;60.13;100229.00;5283639;28;20024;-77
2022/08/15 08:31:36;;;;;;;8.27;6.20;;;;;;;23.66;60.29;100230.19;5299758;28;20028;-74
2022/08/15 08:34:13;;;;;;;8.18;6.60;;;;;;;23.77;59.87;100227.44;5301006;28;20032;-75
2022/08/15 08:36:59;;;;;;;7.22;5.63;;;;;;;23.81;60.09;100233.16;5299455;28;20024;-73
2022/08/15 08:39:42;;;;;;;13.52;6.10;;;;;;;23.84;60.07;100232.34;5294765;28;20036;-73
2022/08/15 08:42:33;;;;;;;7.80;5.40;;;;;;;23.83;60.26;100233.56;5281174;28;20029;-72
2022/08/15 08:45:16;;;;;;;9.32;6.13;;;;;;;23.84;60.02;100227.50;5300894;28;20032;-72
2022/08/15 08:48:05;;;;;;;9.77;5.47;;;;;;;23.90;60.12;100224.28;5300512;28;20028;-73
2022/08/15 08:50:51;;;;;;;7.80;5.88;;;;;;;23.78;60.58;100225.47;5300750;28;20103;-72
2022/08/15 08:53:38;;;;;;;9.95;6.10;;;;;;;23.81;60.41;100235.97;5302557;28;20024;-73
2022/08/15 08:56:19;;;;;;;13.77;6.72;;;;;;;23.76;60.86;100228.66;5279445;28;20503;-73
2022/08/15 08:59:00;;;;;;;23.38;8.32;;;;;;;23.76;60.88;100227.88;5292628;28;20475;-74
2022/08/15 09:01:35;;;;;;;16.15;7.00;;;;;;;23.72;61.26;100230.66;5300059;28;20032;-73
2022/08/15 09:04:15;;;;;;;15.82;8.07;;;;;;;23.66;61.38;100237.88;5300221;28;20031;-72
2022/08/15 09:06:51;;;;;;;9.15;6.47;;;;;;;23.70;61.42;100235.06;5299069;28;20421;-72
2022/08/15 09:09:34;;;;;;;8.50;6.47;;;;;;;23.78;61.35;100248.91;5300103;28;20070;-72
2022/08/15 09:15:15;;;;;;;9.55;6.63;;;;;;;23.80;60.78;100248.50;5266621;28;20045;-72
2022/08/15 09:17:52;;;;;;;9.30;5.93;;;;;;;23.85;60.85;100251.78;5265006;28;20025;-73
2022/08/15 09:20:29;;;;;;;9.85;7.47;;;;;;;23.85;60.56;100251.78;5273594;28;20053;-73
2022/08/15 09:23:08;;;;;;;9.45;6.85;;;;;;;23.90;60.73;100258.28;5285953;28;20379;-73
2022/08/15 09:26:03;;;;;;;9.35;6.07;;;;;;;23.97;60.57;100249.81;5285618;28;20021;-73
2022/08/15 09:28:38;;;;;;;9.23;5.85;;;;;;;24.01;60.81;100256.34;5285557;28;20067;-73
2022/08/15 09:31:16;;;;;;;6.57;5.93;;;;;;;24.05;61.02;100245.81;5275311;28;20025;-73
2022/08/15 09:34:04;;;;;;;7.78;6.47;;;;;;;24.08;61.11;100251.53;5263504;28;20525;-73
2022/08/15 09:36:50;;;;;;;8.10;6.45;;;;;;;24.01;61.05;100250.66;5264056;28;20020;-72
2022/08/15 09:39:55;;;;;;;9.32;7.70;;;;;;;24.04;60.69;100255.53;5264636;28;20025;-73
2022/08/15 09:42:55;;;;;;;7.90;6.63;;;;;;;24.14;60.72;100251.97;5273582;28;20024;-72
2022/08/15 09:45:43;;;;;;;7.88;6.60;;;;;;;24.20;60.87;100249.53;5286323;28;20502;-73
2022/08/15 09:48:20;;;;;;;8.98;7.07;;;;;;;24.25;60.64;100247.13;5284320;28;20466;-72
2022/08/15 09:51:12;;;;;;;8.20;6.18;;;;;;;24.25;61.05;100249.97;5283725;28;20128;-72
2022/08/15 09:53:57;;;;;;;10.40;6.50;;;;;;;24.28;60.51;100252.00;5264636;28;20476;-72
2022/08/15 09:56:33;;;;;;;18.65;16.90;;;;;;;24.26;60.89;100253.63;5263380;28;20032;-72
2022/08/15 09:59:25;;;;;;;7.20;6.55;;;;;;;24.30;60.82;100248.78;5264043;28;20028;-73
2022/08/15 10:02:20;;;;;;;10.80;7.40;;;;;;;24.47;60.57;100261.44;5270701;28;20494;-72
2022/08/15 10:04:57;;;;;;;8.77;6.43;;;;;;;24.50;60.32;100258.63;5278842;28;20023;-72
2022/08/15 10:07:48;;;;;;;6.85;6.15;;;;;;;24.48;60.34;100249.69;5306135;28;20089;-72
2022/08/15 10:10:22;;;;;;;11.40;6.78;;;;;;;24.49;60.22;100250.50;5299415;28;20043;-72
2022/08/15 10:13:50;;;;;;;7.80;7.03;;;;;;;24.59;59.93;100249.72;5283822;28;20028;-72
2022/08/15 10:16:36;;;;;;;14.85;8.00;;;;;;;24.58;59.70;100248.13;5220002;28;20058;-72
2022/08/15 10:19:30;;;;;;;9.75;7.47;;;;;;;24.47;60.12;100252.94;5220722;28;20553;-72
2022/08/15 10:22:22;;;;;;;14.30;7.43;;;;;;;24.59;59.60;100248.91;5264811;28;20036;-72
2022/08/15 10:25:30;;;;;;;39.80;36.03;;;;;;;24.50;59.21;100249.31;5285160;28;20028;-73
2022/08/15 10:28:06;;;;;;;15.30;12.55;;;;;;;24.63;59.02;100252.59;5301194;28;20024;-73
2022/08/15 10:30:41;;;;;;;12.00;7.45;;;;;;;24.73;58.82;100251.81;5283925;28;20390;-72
2022/08/15 10:33:44;;;;;;;10.98;7.53;;;;;;;24.83;58.72;100250.22;5284364;28;20093;-72
2022/08/15 10:36:23;;;;;;;8.05;6.07;;;;;;;24.85;58.39;100256.28;5274797;28;20082;-72
2022/08/15 10:39:16;;;;;;;9.10;6.13;;;;;;;24.77;58.84;100254.66;5279383;28;20108;-72
2022/08/15 10:42:19;;;;;;;11.23;6.50;;;;;;;24.86;58.51;100260.75;5279948;28;20498;-72
2022/08/15 10:45:08;;;;;;;14.27;6.28;;;;;;;24.96;57.97;100262.81;5281266;28;20379;-72
2022/08/15 10:47:54;;;;;;;19.30;9.05;;;;;;;24.91;58.57;100260.38;5283980;28;20017;-73
2022/08/15 10:50:55;;;;;;;8.70;6.43;;;;;;;24.96;58.38;100259.97;5283928;28;20036;-73
2022/08/15 10:53:54;;;;;;;10.77;6.13;;;;;;;24.92;58.48;100259.13;5272067;28;20024;-73
2022/08/15 10:56:30;;;;;;;8.02;5.47;;;;;;;25.05;58.09;100266.03;5275294;28;20031;-70
2022/08/15 10:59:06;;;;;;;9.75;5.65;;;;;;;25.07;58.24;100268.50;5263985;28;20357;-72
2022/08/15 11:01:39;;;;;;;9.40;6.03;;;;;;;25.08;58.33;100264.44;5274140;28;20479;-73
2022/08/15 11:04:35;;;;;;;10.07;7.15;;;;;;;24.89;58.33;100272.09;5276741;28;20024;-71
2022/08/15 11:07:21;;;;;;;;;;;;;;;25.01;58.00;100268.09;5282962;28;20035;-73
2022/08/15 11:10:08;;;;;;;9.35;6.97;;;;;;;24.85;58.88;100262.78;5284781;28;19920;-71
2022/08/15 11:12:48;;;;;;;9.93;6.28;;;;;;;24.84;59.31;100263.19;5295584;28;20475;-71
2022/08/15 11:15:30;;;;;;;7.85;6.07;;;;;;;24.94;58.58;100262.41;5282988;28;20169;-72
2022/08/15 11:18:08;;;;;;;11.27;7.35;;;;;;;24.93;58.50;100266.44;5283133;28;20426;-72
2022/08/15 11:20:49;;;;;;;10.65;9.57;;;;;;;24.98;57.88;100265.22;5282948;28;20043;-72
2022/08/15 11:23:31;;;;;;;9.45;6.28;;;;;;;24.99;57.78;100267.66;5283525;28;20128;-74
2022/08/15 11:26:04;;;;;;;7.15;5.63;;;;;;;24.93;57.72;100257.94;5283566;28;20029;-74
2022/08/15 11:28:39;;;;;;;8.35;6.43;;;;;;;24.96;57.44;100268.47;5295844;28;20016;-74
2022/08/15 11:31:17;;;;;;;8.70;6.53;;;;;;;24.93;57.54;100266.44;5280885;28;20543;-73
2022/08/15 11:33:50;;;;;;;10.35;7.13;;;;;;;24.88;58.47;100261.97;5266172;28;20090;-74
2022/08/15 11:36:26;;;;;;;9.25;5.93;;;;;;;25.07;58.15;100257.94;5300916;28;20034;-72
2022/08/15 11:39:12;;;;;;;6.05;5.47;;;;;;;25.07;57.97;100263.63;5292298;28;20020;-72
2022/08/15 11:41:48;;;;;;;7.03;6.32;;;;;;;25.22;57.44;100263.69;5300500;28;20021;-72
2022/08/15 11:44:23;;;;;;;10.07;7.20;;;;;;;25.26;56.96;100264.47;5281940;28;20118;-73
2022/08/15 11:46:54;;;;;;;8.77;5.50;;;;;;;25.34;56.40;100264.09;5279363;28;20111;-73
2022/08/15 11:49:32;;;;;;;6.90;5.88;;;;;;;25.30;56.83;100271.78;5276431;28;20112;-72
2022/08/15 11:52:08;;;;;;;7.35;5.10;;;;;;;25.45;56.54;100266.94;5270274;28;20024;-74
2022/08/15 11:54:43;;;;;;;16.08;11.32;;;;;;;25.45;56.62;100266.94;5278520;28;20081;-72
2022/08/15 11:57:20;;;;;;;37.03;33.67;;;;;;;25.56;56.20;100273.41;5281361;28;20457;-73
2022/08/15 12:00:08;;;;;;;12.95;11.85;;;;;;;25.65;55.67;100270.19;5283002;28;20059;-73
2022/08/15 12:02:39;;;;;;;7.18;5.75;;;;;;;25.59;55.53;100271.78;5279650;28;20021;-72
2022/08/15 12:05:16;;;;;;;9.30;5.82;;;;;;;25.66;55.50;100266.09;5270980;28;20028;-73
2022/08/15 12:07:47;;;;;;;7.50;5.68;;;;;;;25.70;55.14;100271.81;5270949;28;20090;-70
2022/08/15 12:10:27;;;;;;;12.88;7.70;;;;;;;25.62;55.93;100267.31;5279287;28;20032;-70
2022/08/15 12:12:59;;;;;;;9.68;7.07;;;;;;;25.65;55.35;100275.06;5282883;28;20025;-69
2022/08/15 12:15:30;;;;;;;7.90;5.75;;;;;;;25.57;55.21;100275.03;5280964;28;20032;-68
2022/08/15 12:18:17;;;;;;;9.32;5.72;;;;;;;25.55;55.70;100286.00;5275352;28;20024;-68
2022/08/15 12:20:54;;;;;;;12.07;6.40;;;;;;;25.53;56.12;100276.25;5277090;28;20418;-68
2022/08/15 12:23:29;;;;;;;7.07;5.80;;;;;;;25.53;56.42;100285.59;5281929;28;20029;-68
2022/08/15 12:26:06;;;;;;;7.90;6.68;;;;;;;25.59;56.10;100283.16;5264945;28;20040;-68
2022/08/15 12:28:39;;;;;;;8.65;5.75;;;;;;;25.47;56.71;100281.53;5262689;28;20108;-70
2022/08/15 12:31:31;;;;;;;8.02;5.53;;;;;;;25.53;56.57;100279.91;5270072;28;20421;-68
2022/08/15 12:34:24;;;;;;;7.22;5.45;;;;;;;25.56;56.38;100279.09;5280835;28;20437;-68
2022/08/15 12:37:00;;;;;;;7.00;5.22;;;;;;;25.58;56.33;100278.69;5280007;28;20108;-68
2022/08/15 12:39:33;;;;;;;7.10;5.40;;;;;;;25.64;56.09;100285.56;5260746;28;20467;-68
2022/08/15 12:42:05;;;;;;;9.23;6.78;;;;;;;25.70;55.51;100286.00;5272700;28;20032;-69
2022/08/15 12:44:38;;;;;;;8.57;6.78;;;;;;;25.62;55.89;100284.34;5274178;28;20550;-70
2022/08/15 12:47:09;;;;;;;9.10;6.22;;;;;;;25.71;56.11;100284.78;5279813;28;20032;-70
2022/08/15 12:49:44;;;;;;;7.00;5.43;;;;;;;25.84;55.05;100279.47;5280586;28;20035;-71
2022/08/15 12:52:19;;;;;;;22.55;20.35;;;;;;;25.86;54.96;100285.59;5286002;28;20074;-71
2022/08/15 12:54:51;;;;;;;9.35;8.40;;;;;;;25.79;55.17;100283.53;5280474;28;20041;-71
2022/08/15 12:57:22;;;;;;;7.25;6.35;;;;;;;25.93;54.85;100291.28;5285796;28;20029;-73
2022/08/15 12:59:54;;;;;;;7.43;6.35;;;;;;;25.89;54.67;100285.59;5267267;28;20110;-71
2022/08/15 13:02:25;;;;;;;7.00;6.13;;;;;;;25.90;54.69;100281.53;5277984;28;20395;-73
2022/08/15 13:04:57;;;;;;;6.93;5.45;;;;;;;25.96;54.39;100279.91;5281563;28;20025;-71
2022/08/15 13:07:28;;;;;;;8.48;6.55;;;;;;;25.92;53.95;100278.28;5301746;28;20023;-71
2022/08/15 13:10:01;;;;;;;6.68;5.97;;;;;;;25.95;53.77;100281.13;5300177;28;20032;-71
2022/08/15 13:12:33;;;;;;;7.22;5.95;;;;;;;25.85;53.93;100279.13;5278464;28;20489;-72
2022/08/15 13:15:06;;;;;;;7.43;5.82;;;;;;;25.86;54.20;100275.03;5265100;28;20029;-72
2022/08/15 13:17:38;;;;;;;7.45;6.68;;;;;;;25.85;54.50;100279.13;5270858;28;20089;-71
2022/08/15 13:25:52;;;;;;;8.07;5.70;;;;;;;25.90;55.04;100287.22;5286556;28;20035;-72
2022/08/15 13:28:24;;;;;;;7.80;5.75;;;;;;;25.92;54.91;100289.63;5279230;28;20108;-71
2022/08/15 13:30:57;;;;;;;6.13;5.40;;;;;;;25.90;54.80;100292.06;5283848;28;20426;-71
2022/08/15 13:33:28;;;;;;;7.63;5.95;;;;;;;25.78;55.12;100290.44;5284818;28;20028;-71
2022/08/15 13:36:02;;;;;;;6.38;5.25;;;;;;;25.78;54.99;100287.59;5285240;28;20036;-72
2022/08/15 13:38:33;;;;;;;7.78;5.30;;;;;;;25.80;55.24;100288.03;5278444;28;20116;-73
2022/08/15 13:41:09;;;;;;;5.82;5.00;;;;;;;25.86;55.09;100286.41;5284213;28;20108;-73
2022/08/15 13:43:44;;;;;;;8.45;5.40;;;;;;;25.74;55.48;100292.47;5283469;28;20040;-72
2022/08/15 13:46:18;;;;;;;6.40;5.72;;;;;;;25.87;55.07;100287.22;5278523;28;20024;-71
2022/08/15 13:48:50;;;;;;;9.40;6.93;;;;;;;25.73;55.54;100280.31;5287297;28;20025;-72
2022/08/15 13:51:29;;;;;;;9.70;5.60;;;;;;;25.80;55.14;100282.34;5285473;28;20074;-71
2022/08/15 13:54:06;;;;;;;7.22;5.50;;;;;;;25.92;54.92;100279.09;5285214;28;20037;-70
2022/08/15 13:56:43;;;;;;;7.05;5.40;;;;;;;25.93;55.03;100280.72;5284329;28;20030;-71
2022/08/15 13:59:14;;;;;;;6.63;5.32;;;;;;;25.94;55.15;100282.31;5284520;28;20048;-71
2022/08/15 14:01:51;;;;;;;6.72;5.72;;;;;;;25.89;55.12;100279.91;5274035;28;20306;-72
2022/08/15 14:04:38;;;;;;;7.40;5.63;;;;;;;25.82;55.34;100279.88;5284101;28;20071;-72
2022/08/15 14:07:12;;;;;;;10.98;6.70;;;;;;;25.76;55.58;100275.84;5284672;28;20039;-71
2022/08/15 14:09:44;;;;;;;6.22;5.40;;;;;;;25.83;55.55;100277.88;5284014;28;20118;-72
2022/08/15 14:12:17;;;;;;;8.18;6.13;;;;;;;25.65;55.61;100272.22;5284613;28;20063;-71
2022/08/15 14:14:48;;;;;;;8.95;5.93;;;;;;;25.77;55.38;100272.59;5283085;28;20468;-72
2022/08/15 14:17:20;;;;;;;7.72;5.57;;;;;;;25.78;55.62;100267.72;5279666;28;20017;-69
2022/08/15 14:19:56;;;;;;;6.63;5.50;;;;;;;25.82;55.44;100271.34;5275697;28;20460;-71
2022/08/15 14:22:28;;;;;;;5.93;5.30;;;;;;;25.68;55.90;100265.72;5284664;28;20055;-71
2022/08/15 14:24:59;;;;;;;9.35;5.80;;;;;;;25.85;55.73;100270.59;5297241;28;20145;-71
2022/08/15 14:27:35;;;;;;;7.75;5.63;;;;;;;25.84;56.03;100274.59;5282649;28;20043;-71
2022/08/15 14:30:07;;;;;;;6.72;5.13;;;;;;;25.85;55.57;100267.75;5284593;28;20031;-72
2022/08/15 14:32:40;;;;;;;7.30;5.80;;;;;;;25.89;55.61;100274.22;5292059;28;20419;-72
2022/08/15 14:35:14;;;;;;;8.00;5.38;;;;;;;25.90;55.38;100275.88;5293383;28;20024;-68
2022/08/15 14:37:50;;;;;;;8.95;7.13;;;;;;;25.92;55.75;100276.25;5267981;28;20465;-72
2022/08/15 14:40:29;;;;;;;8.13;6.20;;;;;;;25.98;55.38;100274.63;5322836;27;20101;-71
2022/08/15 14:43:04;;;;;;;8.50;6.13;;;;;;;25.94;55.27;100270.97;5296684;28;20025;-71
2022/08/15 14:45:38;;;;;;;8.60;6.00;;;;;;;25.95;55.57;100275.44;5287327;28;20024;-71
2022/08/15 14:48:14;;;;;;;11.23;6.00;;;;;;;26.08;55.30;100264.47;5292295;28;20078;-73
2022/08/15 14:50:47;;;;;;;9.57;5.70;;;;;;;26.02;55.25;100261.19;5298483;28;20062;-72
2022/08/15 14:53:21;;;;;;;7.78;5.28;;;;;;;26.15;55.29;100257.94;5294752;28;20112;-72
2022/08/15 14:55:52;;;;;;;7.28;5.63;;;;;;;26.25;54.74;100257.09;5294532;28;20427;-72
2022/08/15 14:58:26;;;;;;;6.03;5.50;;;;;;;26.34;54.17;100251.78;5282775;28;20020;-70
2022/08/15 15:01:01;;;;;;;7.40;6.47;;;;;;;26.27;54.11;100243.28;5282990;28;20166;-71
2022/08/15 15:03:32;;;;;;;8.07;5.80;;;;;;;26.34;53.90;100243.25;5286479;28;20462;-71
2022/08/15 15:06:04;;;;;;;6.75;5.97;;;;;;;26.41;53.91;100245.28;5275319;28;20029;-71
2022/08/15 15:08:37;;;;;;;9.88;6.63;;;;;;;26.42;53.48;100241.19;5280043;28;20056;-71
2022/08/15 15:11:10;;;;;;;7.28;5.80;;;;;;;26.44;53.28;100245.25;5273893;28;20040;-72
2022/08/15 15:13:43;;;;;;;6.03;5.43;;;;;;;26.57;53.07;100241.97;5266014;28;20048;-71
2022/08/15 15:16:22;;;;;;;7.22;5.65;;;;;;;26.57;52.74;100237.09;5281565;28;20024;-73
2022/08/15 15:18:55;;;;;;;6.68;5.43;;;;;;;26.60;52.92;100233.41;5283467;28;20028;-72
2022/08/15 15:21:28;;;;;;;5.88;5.28;;;;;;;26.67;52.54;100227.69;5282523;28;20521;-72
2022/08/15 15:24:01;;;;;;;5.65;4.90;;;;;;;26.56;52.50;100228.97;5281696;28;20443;-72
2022/08/15 15:26:33;;;;;;;6.47;5.53;;;;;;;26.64;52.06;100222.03;5302737;28;20490;-72
2022/08/15 15:29:05;;;;;;;8.27;5.30;;;;;;;26.59;52.11;100219.63;5278731;28;20327;-71
2022/08/15 15:31:38;;;;;;;9.18;4.78;;;;;;;26.43;51.42;100223.75;5286644;28;20502;-71
2022/08/15 15:34:12;;;;;;;5.15;4.60;;;;;;;26.52;51.40;100223.31;5279550;28;20020;-72
2022/08/15 15:36:46;;;;;;;5.70;5.10;;;;;;;26.57;51.54;100224.91;5292874;28;20474;-71
2022/08/15 15:39:22;;;;;;;4.97;4.53;;;;;;;26.53;51.02;100222.06;5296744;28;20059;-72
2022/08/15 15:41:54;;;;;;;10.02;5.22;;;;;;;26.47;51.21;100218.03;5284111;28;20524;-71
2022/08/15 15:44:27;;;;;;;5.50;5.00;;;;;;;26.62;51.77;100224.47;5293325;28;20020;-71
2022/08/15 15:47:04;;;;;;;6.38;5.60;;;;;;;26.70;51.30;100219.56;5281781;28;20031;-71
2022/08/15 15:49:39;;;;;;;5.85;4.97;;;;;;;26.58;50.96;100229.38;5279066;28;20447;-70
2022/08/15 15:52:14;;;;;;;7.05;4.82;;;;;;;26.60;50.92;100215.56;5280317;28;20112;-71
2022/08/15 15:54:48;;;;;;;7.22;5.65;;;;;;;26.70;50.67;100228.91;5275299;28;20025;-71
2022/08/15 15:57:20;;;;;;;5.90;4.60;;;;;;;26.82;49.84;100222.72;5267600;28;20306;-71
2022/08/15 15:59:54;;;;;;;6.47;4.53;;;;;;;26.83;48.68;100226.38;5278017;28;20106;-71
2022/08/15 16:02:29;;;;;;;6.30;4.70;;;;;;;26.85;48.10;100221.91;5290605;28;20490;-72
2022/08/15 16:05:06;;;;;;;4.78;4.32;;;;;;;26.84;47.86;100230.84;5296823;28;20070;-71
2022/08/15 16:07:37;;;;;;;8.05;6.97;;;;;;;26.79;47.96;100223.56;5272964;28;20052;-72
2022/08/15 16:10:19;;;;;;;4.57;4.10;;;;;;;26.71;48.26;100224.81;5277474;28;20052;-72
2022/08/15 16:12:55;;;;;;;5.53;4.38;;;;;;;26.72;48.24;100229.28;5294853;28;20028;-72
2022/08/15 16:15:35;;;;;;;6.65;4.35;;;;;;;26.64;48.17;100236.25;5289167;28;20495;-72
2022/08/15 16:18:13;;;;;;;4.28;3.88;;;;;;;26.52;47.48;100236.69;5286240;28;20104;-72
2022/08/15 16:20:52;;;;;;;5.63;4.63;;;;;;;26.46;47.46;100234.28;5261912;28;20198;-72
2022/08/15 16:23:34;;;;;;;6.43;4.07;;;;;;;26.42;46.60;100233.47;5276577;28;20024;-72
2022/08/15 16:26:11;;;;;;;5.07;3.47;;;;;;;26.37;46.15;100238.78;5297316;28;20020;-72
2022/08/15 16:29:09;;;;;;;5.75;4.97;;;;;;;26.35;48.01;100239.19;5269366;28;20035;-72
2022/08/15 16:31:55;;;;;;;5.20;3.95;;;;;;;26.34;47.89;100239.59;5276346;28;20044;-72
2022/08/15 16:34:52;;;;;;;4.60;3.97;;;;;;;26.33;47.70;100235.97;5302548;28;20031;-70
2022/08/15 16:37:34;;;;;;;4.65;4.15;;;;;;;26.27;48.46;100234.75;5265800;28;20388;-71
2022/08/15 16:40:21;;;;;;;5.05;4.55;;;;;;;26.20;49.39;100237.63;5266405;28;20155;-72
2022/08/15 16:43:04;;;;;;;6.00;4.70;;;;;;;26.12;49.94;100236.81;5268324;28;20040;-72
2022/08/15 16:45:55;;;;;;;7.63;4.50;;;;;;;26.09;50.78;100243.34;5285813;28;20021;-72
2022/08/15 16:48:34;;;;;;;6.53;4.35;;;;;;;26.02;51.13;100238.47;5276526;28;20101;-71
2022/08/15 16:51:13;;;;;;;5.47;4.70;;;;;;;26.07;51.45;100233.59;5286004;28;20081;-72
2022/08/15 16:54:21;;;;;;;9.27;5.45;;;;;;;26.02;51.78;100237.66;5271572;28;20052;-71
2022/08/15 16:57:20;;;;;;;5.10;4.60;;;;;;;25.97;52.36;100236.06;5276114;28;20596;-71
2022/08/15 17:00:14;;;;;;;5.82;5.28;;;;;;;25.95;51.81;100238.53;5275354;28;20047;-72
2022/08/15 17:03:30;;;;;;;7.05;5.00;;;;;;;25.94;51.15;100230.41;5293054;28;20024;-75
2022/08/15 17:06:28;;;;;;;7.78;4.63;;;;;;;25.88;51.41;100224.34;5282035;28;20017;-71
2022/08/15 17:09:39;;;;;;;7.43;5.50;;;;;;;25.89;51.56;100227.97;5304495;28;20035;-71
2022/08/15 17:12:23;;;;;;;7.10;5.20;;;;;;;25.84;51.30;100232.00;5265325;28;20045;-71
2022/08/15 17:15:13;;;;;;;5.65;4.15;;;;;;;25.85;50.87;100222.31;5265524;28;20028;-71
2022/08/15 17:18:15;;;;;;;7.30;5.15;;;;;;;25.87;51.34;100217.00;5271496;28;20025;-72
2022/08/15 17:21:07;;;;;;;5.15;4.65;;;;;;;25.95;51.16;100224.31;5285226;28;20028;-71
2022/08/15 17:24:01;;;;;;;6.88;4.82;;;;;;;25.94;51.28;100221.88;5282987;28;20475;-72
2022/08/15 17:26:38;;;;;;;5.22;4.72;;;;;;;25.90;50.51;100218.22;5284213;28;20020;-71
2022/08/15 17:29:53;;;;;;;6.35;4.60;;;;;;;25.95;50.54;100215.78;5266573;28;20021;-72
